Time;durP1;ratioP1;P1;durP2;ratioP2;P2;SDS_P1;SDS_P2;PMS_P1;PMS_P2;Temp;Humidity;BMP_temperature;BMP_pressure;BME280_temperature;BME280_humidity;BME280_pressure;Samples;Min_cycle;Max_cycle;Signal;HPM_P1;HPM_P2
2021/12/27 00:02:19;;;;;;;6.68;5.97;;;;;;;;;;5041354;28;20021;-56
2021/12/27 00:04:45;;;;;;;6.72;6.03;;;;;;;;;;5032045;28;20037;-55
2021/12/27 00:07:11;;;;;;;8.43;7.32;;;;;;;;;;5031980;28;20030;-56
2021/12/27 00:09:39;;;;;;;7.63;6.07;;;;;;;;;;5031504;28;20615;-55
2021/12/27 00:12:05;;;;;;;8.32;6.45;;;;;;;;;;5032098;28;20030;-54
2021/12/27 00:14:31;;;;;;;8.43;7.38;;;;;;;;;;5031958;28;20384;-53
2021/12/27 00:16:57;;;;;;;6.78;6.07;;;;;;;;;;5031979;28;20032;-56
2021/12/27 00:19:23;;;;;;;8.85;7.32;;;;;;;;;;5031170;28;20025;-55
2021/12/27 00:21:49;;;;;;;7.75;6.90;;;;;;;;;;5031890;28;20252;-55
2021/12/27 00:24:15;;;;;;;7.30;5.30;;;;;;;;;;5031993;28;20099;-52
2021/12/27 00:26:41;;;;;;;7.35;6.45;;;;;;;;;;5032190;28;20037;-56
2021/12/27 00:29:07;;;;;;;7.40;6.30;;;;;;;;;;5031257;28;20030;-54
2021/12/27 00:31:33;;;;;;;7.60;6.18;;;;;;;;;;5031994;28;20086;-55
2021/12/27 00:33:59;;;;;;;8.43;5.78;;;;;;;;;;5031792;28;20112;-56
2021/12/27 00:36:25;;;;;;;7.43;5.82;;;;;;;;;;5032047;28;20052;-54
2021/12/27 00:38:51;;;;;;;8.88;6.35;;;;;;;;;;5031307;28;20029;-54
2021/12/27 00:41:17;;;;;;;7.93;5.30;;;;;;;;;;5031872;28;20055;-56
2021/12/27 00:43:43;;;;;;;7.82;6.22;;;;;;;;;;5031872;28;20109;-53
2021/12/27 00:46:09;;;;;;;7.03;5.50;;;;;;;;;;5032139;28;20112;-49
2021/12/27 00:48:35;;;;;;;8.13;5.53;;;;;;;;;;5031691;28;20044;-56
2021/12/27 00:51:02;;;;;;;7.57;6.65;;;;;;;;;;5031819;28;20490;-54
2021/12/27 00:53:28;;;;;;;8.50;6.82;;;;;;;;;;5031631;28;20037;-50
2021/12/27 00:55:54;;;;;;;11.50;6.63;;;;;;;;;;5046891;28;20036;-54
2021/12/27 00:58:20;;;;;;;10.23;6.72;;;;;;;;;;5051468;28;20470;-54
2021/12/27 01:00:46;;;;;;;7.22;6.45;;;;;;;;;;5055730;28;20025;-55
2021/12/27 01:03:12;;;;;;;11.18;6.78;;;;;;;;;;5037139;28;20279;-54
2021/12/27 01:05:39;;;;;;;8.68;7.50;;;;;;;;;;5035603;28;20078;-53
2021/12/27 01:08:06;;;;;;;8.18;6.50;;;;;;;;;;5034852;28;20491;-53
2021/12/27 01:10:57;;;;;;;11.02;6.90;;;;;;;;;;5035296;28;20029;-53
2021/12/27 01:15:51;;;;;;;8.95;6.85;;;;;;;;;;5034891;28;20112;-52
2021/12/27 01:18:18;;;;;;;10.23;7.25;;;;;;;;;;5034629;28;20038;-53
2021/12/27 01:20:44;;;;;;;8.75;6.07;;;;;;;;;;5035029;28;20418;-52
2021/12/27 01:23:10;;;;;;;10.10;7.30;;;;;;;;;;5035064;28;20036;-50
2021/12/27 01:25:36;;;;;;;8.98;5.95;;;;;;;;;;5034889;28;20021;-55
2021/12/27 01:28:03;;;;;;;7.78;6.35;;;;;;;;;;5034244;28;20064;-55
2021/12/27 01:30:30;;;;;;;8.18;5.63;;;;;;;;;;5034521;28;20108;-56
2021/12/27 01:32:59;;;;;;;7.45;5.63;;;;;;;;;;5034941;28;20029;-54
2021/12/27 01:35:26;;;;;;;7.33;6.63;;;;;;;;;;5034659;28;20038;-54
2021/12/27 01:37:53;;;;;;;7.03;5.68;;;;;;;;;;5034021;28;20375;-55
2021/12/27 01:40:21;;;;;;;9.13;6.68;;;;;;;;;;5034694;28;20493;-54
2021/12/27 01:43:00;;;;;;;7.10;6.00;;;;;;;;;;5034415;28;20516;-55
2021/12/27 01:45:26;;;;;;;8.70;6.35;;;;;;;;;;5034665;28;20025;-52
2021/12/27 01:47:52;;;;;;;5.88;5.25;;;;;;;;;;5033858;28;20025;-53
2021/12/27 01:50:18;;;;;;;6.93;5.25;;;;;;;;;;5034571;28;20029;-51
2021/12/27 01:52:44;;;;;;;8.18;6.03;;;;;;;;;;5034203;28;20029;-53
2021/12/27 01:55:13;;;;;;;7.68;6.35;;;;;;;;;;5043302;28;20025;-51
2021/12/27 01:57:39;;;;;;;7.50;6.05;;;;;;;;;;5054364;28;20325;-54
2021/12/27 02:00:06;;;;;;;10.00;6.75;;;;;;;;;;5053644;28;20128;-51
2021/12/27 02:02:32;;;;;;;9.80;7.35;;;;;;;;;;5042053;28;20035;-52
2021/12/27 02:04:58;;;;;;;8.90;7.18;;;;;;;;;;5034467;28;20108;-50
2021/12/27 02:07:24;;;;;;;10.80;8.68;;;;;;;;;;5034397;28;20029;-53
2021/12/27 02:10:01;;;;;;;12.05;6.93;;;;;;;;;;5033338;28;20463;-52
2021/12/27 02:12:27;;;;;;;8.57;6.05;;;;;;;;;;5034234;28;20064;-52
2021/12/27 02:14:54;;;;;;;9.02;6.28;;;;;;;;;;5034209;28;20041;-50
2021/12/27 02:17:21;;;;;;;7.43;5.38;;;;;;;;;;5034049;28;20056;-54
2021/12/27 02:19:47;;;;;;;8.43;5.55;;;;;;;;;;5033238;28;20030;-55
2021/12/27 02:22:13;;;;;;;8.23;5.00;;;;;;;;;;5033794;28;20510;-55
2021/12/27 02:24:40;;;;;;;5.78;4.78;;;;;;;;;;5033499;28;20475;-55
2021/12/27 02:27:06;;;;;;;6.57;5.55;;;;;;;;;;5033995;28;20025;-55
2021/12/27 02:29:32;;;;;;;8.10;5.30;;;;;;;;;;5033229;28;20076;-53
2021/12/27 02:31:58;;;;;;;5.93;4.90;;;;;;;;;;5033853;28;20026;-54
2021/12/27 02:34:24;;;;;;;8.35;6.07;;;;;;;;;;5033617;28;20037;-53
2021/12/27 02:36:50;;;;;;;5.70;4.75;;;;;;;;;;5033621;28;20037;-54
2021/12/27 02:39:16;;;;;;;5.88;5.03;;;;;;;;;;5032935;28;20028;-53
2021/12/27 02:41:42;;;;;;;7.35;5.45;;;;;;;;;;5033617;28;20025;-54
2021/12/27 02:44:08;;;;;;;6.28;4.60;;;;;;;;;;5033540;28;20429;-55
2021/12/27 02:46:34;;;;;;;8.27;4.45;;;;;;;;;;5033470;28;20069;-56
2021/12/27 02:49:00;;;;;;;6.50;4.07;;;;;;;;;;5032776;28;20424;-56
2021/12/27 02:51:26;;;;;;;5.88;4.82;;;;;;;;;;5033346;28;20029;-54
2021/12/27 02:53:52;;;;;;;7.65;5.22;;;;;;;;;;5032710;28;20118;-55
2021/12/27 02:56:18;;;;;;;6.75;4.85;;;;;;;;;;5051801;28;20439;-55
2021/12/27 02:58:45;;;;;;;5.68;4.43;;;;;;;;;;5052534;28;20021;-55
2021/12/27 03:01:15;;;;;;;5.85;4.63;;;;;;;;;;5051924;28;20104;-55
2021/12/27 03:03:41;;;;;;;6.18;3.88;;;;;;;;;;5033159;28;20059;-53
2021/12/27 03:06:08;;;;;;;9.10;4.78;;;;;;;;;;5032963;28;20039;-56
2021/12/27 03:08:34;;;;;;;6.25;4.95;;;;;;;;;;5032358;28;20100;-52
2021/12/27 03:11:00;;;;;;;4.97;4.05;;;;;;;;;;5032896;28;20037;-51
2021/12/27 03:13:31;;;;;;;6.93;4.38;;;;;;;;;;5032868;28;20030;-52
2021/12/27 03:15:58;;;;;;;5.50;3.92;;;;;;;;;;5032844;28;20546;-55
2021/12/27 03:18:24;;;;;;;4.45;3.83;;;;;;;;;;5032152;28;20356;-55
2021/12/27 03:20:51;;;;;;;6.43;4.20;;;;;;;;;;5032565;28;20578;-52
2021/12/27 03:23:17;;;;;;;8.63;4.75;;;;;;;;;;5032559;28;20376;-55
2021/12/27 03:25:43;;;;;;;9.35;6.03;;;;;;;;;;5032685;28;20057;-54
2021/12/27 03:28:09;;;;;;;6.60;4.88;;;;;;;;;;5032011;28;20025;-55
2021/12/27 03:30:35;;;;;;;7.93;5.35;;;;;;;;;;5032690;28;20087;-55
2021/12/27 03:33:03;;;;;;;5.80;4.25;;;;;;;;;;5032584;28;20057;-56
2021/12/27 03:35:35;;;;;;;4.95;4.25;;;;;;;;;;5032513;28;20071;-53
2021/12/27 03:38:02;;;;;;;5.65;4.57;;;;;;;;;;5032073;28;20033;-53
2021/12/27 03:40:28;;;;;;;7.40;4.65;;;;;;;;;;5032515;28;20033;-51
2021/12/27 03:42:55;;;;;;;7.82;4.60;;;;;;;;;;5032511;28;20463;-52
2021/12/27 03:45:25;;;;;;;5.75;4.30;;;;;;;;;;5032478;28;20029;-55
2021/12/27 03:47:51;;;;;;;5.43;3.97;;;;;;;;;;5031693;28;20053;-54
2021/12/27 03:50:17;;;;;;;6.15;4.25;;;;;;;;;;5032705;28;20478;-56
2021/12/27 03:52:44;;;;;;;5.63;4.38;;;;;;;;;;5032112;28;20052;-52
2021/12/27 03:55:11;;;;;;;5.90;4.35;;;;;;;;;;5041546;28;20021;-53
2021/12/27 03:57:39;;;;;;;4.70;3.92;;;;;;;;;;5052033;28;20021;-54
2021/12/27 04:00:33;;;;;;;6.43;4.60;;;;;;;;;;5051708;28;20102;-53
2021/12/27 04:02:54;;;;;;;7.57;4.05;;;;;;;;;;5036691;28;20079;-51
2021/12/27 04:05:20;;;;;;;6.03;4.07;;;;;;;;;;5032352;28;20129;-52
2021/12/27 04:07:49;;;;;;;6.00;3.65;;;;;;;;;;5031628;28;20037;-55
2021/12/27 04:10:15;;;;;;;5.68;3.67;;;;;;;;;;5031896;28;20511;-55
2021/12/27 04:12:42;;;;;;;5.45;4.00;;;;;;;;;;5032024;28;20087;-54
2021/12/27 04:15:09;;;;;;;6.30;4.90;;;;;;;;;;5032048;28;20025;-54
2021/12/27 04:17:35;;;;;;;4.95;3.55;;;;;;;;;;5031908;28;20030;-52
2021/12/27 04:20:02;;;;;;;5.10;3.55;;;;;;;;;;5031547;28;20029;-52
2021/12/27 04:22:28;;;;;;;4.32;3.35;;;;;;;;;;5032269;28;20486;-53
2021/12/27 04:24:54;;;;;;;7.55;4.00;;;;;;;;;;5031881;28;20033;-54
2021/12/27 04:27:20;;;;;;;5.63;4.20;;;;;;;;;;5031954;28;20025;-52
2021/12/27 04:29:46;;;;;;;5.40;3.67;;;;;;;;;;5031508;28;20082;-53
2021/12/27 04:32:12;;;;;;;4.30;3.42;;;;;;;;;;5026801;28;20386;-52
2021/12/27 04:34:38;;;;;;;7.20;4.45;;;;;;;;;;5034774;28;20044;-55
2021/12/27 04:37:04;;;;;;;5.18;4.53;;;;;;;;;;5036024;28;20032;-53
2021/12/27 04:39:30;;;;;;;5.20;4.10;;;;;;;;;;5035070;28;20021;-53
2021/12/27 04:41:57;;;;;;;4.55;3.63;;;;;;;;;;5035326;28;20028;-56
2021/12/27 04:44:23;;;;;;;5.15;3.78;;;;;;;;;;5035672;28;20030;-55
2021/12/27 04:46:49;;;;;;;6.80;4.53;;;;;;;;;;5033625;28;20120;-51
2021/12/27 04:49:15;;;;;;;4.80;3.45;;;;;;;;;;5035188;28;20107;-54
2021/12/27 04:51:41;;;;;;;4.35;3.28;;;;;;;;;;5053562;28;20021;-51
2021/12/27 04:54:07;;;;;;;5.85;3.33;;;;;;;;;;5055143;28;20089;-53
2021/12/27 04:56:33;;;;;;;4.55;3.45;;;;;;;;;;5053024;28;20390;-52
2021/12/27 04:58:59;;;;;;;7.43;4.00;;;;;;;;;;5054638;28;20100;-54
2021/12/27 05:01:25;;;;;;;3.78;2.38;;;;;;;;;;5052098;28;20426;-54
2021/12/27 05:03:51;;;;;;;5.78;4.15;;;;;;;;;;5035324;28;20079;-52
2021/12/27 05:06:17;;;;;;;3.58;3.03;;;;;;;;;;5033327;28;20048;-54
2021/12/27 05:08:43;;;;;;;3.80;2.72;;;;;;;;;;5034572;28;20033;-54
2021/12/27 05:11:09;;;;;;;4.70;3.17;;;;;;;;;;5054399;28;20029;-53
2021/12/27 05:13:36;;;;;;;3.55;2.83;;;;;;;;;;5055193;28;20064;-50
2021/12/27 05:16:02;;;;;;;3.80;2.92;;;;;;;;;;5055171;28;20026;-52
2021/12/27 05:18:28;;;;;;;4.85;3.28;;;;;;;;;;5054710;28;20021;-50
2021/12/27 05:20:54;;;;;;;3.75;2.85;;;;;;;;;;5054946;28;20036;-53
2021/12/27 05:23:20;;;;;;;5.63;3.33;;;;;;;;;;5054721;28;20057;-55
2021/12/27 05:25:46;;;;;;;5.80;3.50;;;;;;;;;;5054645;28;20032;-52
2021/12/27 05:28:12;;;;;;;5.63;3.67;;;;;;;;;;5054249;28;20028;-51
2021/12/27 05:30:41;;;;;;;4.57;3.72;;;;;;;;;;5055102;28;20025;-53
2021/12/27 05:33:07;;;;;;;5.50;3.85;;;;;;;;;;5054799;28;20094;-55
2021/12/27 05:35:32;;;;;;;4.45;3.08;;;;;;;;;;5054627;28;20168;-56
2021/12/27 05:37:58;;;;;;;4.03;3.08;;;;;;;;;;5053893;28;20029;-54
2021/12/27 05:40:25;;;;;;;5.53;3.38;;;;;;;;;;5054560;28;20053;-49
2021/12/27 05:42:51;;;;;;;5.82;3.50;;;;;;;;;;5054537;28;20056;-55
2021/12/27 05:45:18;;;;;;;4.30;3.03;;;;;;;;;;5053529;28;20061;-55
2021/12/27 05:47:45;;;;;;;4.97;3.17;;;;;;;;;;5054337;28;20483;-55
2021/12/27 05:50:11;;;;;;;4.43;3.28;;;;;;;;;;5054049;28;20489;-54
2021/12/27 05:52:37;;;;;;;3.95;2.97;;;;;;;;;;5053702;28;20425;-54
2021/12/27 05:55:04;;;;;;;4.05;3.30;;;;;;;;;;5054177;28;20021;-53
2021/12/27 05:57:30;;;;;;;4.15;2.85;;;;;;;;;;5054021;28;20435;-54
2021/12/27 05:59:57;;;;;;;3.25;2.85;;;;;;;;;;5053805;28;20024;-55
2021/12/27 06:02:23;;;;;;;6.35;3.00;;;;;;;;;;5042864;28;20079;-55
2021/12/27 06:04:49;;;;;;;3.20;2.42;;;;;;;;;;5034143;28;20038;-55
2021/12/27 06:07:15;;;;;;;3.97;3.28;;;;;;;;;;5042289;28;20043;-54
2021/12/27 06:09:41;;;;;;;7.38;3.70;;;;;;;;;;5053267;28;20033;-52
2021/12/27 06:12:07;;;;;;;4.60;3.15;;;;;;;;;;5053979;28;20047;-53
2021/12/27 06:14:33;;;;;;;4.20;3.55;;;;;;;;;;5054159;28;20564;-55
2021/12/27 06:16:59;;;;;;;4.82;2.83;;;;;;;;;;5053901;28;20044;-55
2021/12/27 06:19:25;;;;;;;4.85;3.50;;;;;;;;;;5053244;28;20025;-55
2021/12/27 06:21:51;;;;;;;4.50;3.17;;;;;;;;;;5053591;28;20044;-53
2021/12/27 06:24:17;;;;;;;4.53;2.97;;;;;;;;;;5053695;28;20108;-56
2021/12/27 06:26:43;;;;;;;4.22;2.38;;;;;;;;;;5053904;28;20056;-50
2021/12/27 06:29:09;;;;;;;5.35;3.35;;;;;;;;;;5052732;28;20497;-54
2021/12/27 06:31:35;;;;;;;3.72;2.78;;;;;;;;;;5053675;28;20035;-54
2021/12/27 06:34:01;;;;;;;3.50;2.67;;;;;;;;;;5053570;28;20025;-52
2021/12/27 06:36:27;;;;;;;4.25;2.90;;;;;;;;;;5053826;28;20033;-51
2021/12/27 06:38:53;;;;;;;5.97;3.55;;;;;;;;;;5052661;28;20171;-54
2021/12/27 06:41:19;;;;;;;4.07;2.90;;;;;;;;;;5053817;28;20463;-55
2021/12/27 06:43:45;;;;;;;4.30;2.85;;;;;;;;;;5053177;28;20332;-56
2021/12/27 06:46:11;;;;;;;6.28;3.40;;;;;;;;;;5053582;28;20048;-55
2021/12/27 06:48:37;;;;;;;4.22;3.03;;;;;;;;;;5052219;28;20033;-52
2021/12/27 06:51:03;;;;;;;3.65;3.08;;;;;;;;;;5053113;28;20532;-54
2021/12/27 06:53:30;;;;;;;3.75;3.28;;;;;;;;;;5053130;28;20470;-56
2021/12/27 06:55:57;;;;;;;3.90;3.08;;;;;;;;;;5052977;28;20029;-53
2021/12/27 06:58:24;;;;;;;8.82;3.72;;;;;;;;;;5052382;28;20130;-54
2021/12/27 07:00:50;;;;;;;6.22;3.72;;;;;;;;;;5053190;28;20021;-56
2021/12/27 07:03:16;;;;;;;5.10;3.40;;;;;;;;;;5044067;28;20067;-56
2021/12/27 07:05:43;;;;;;;4.85;3.40;;;;;;;;;;5052933;28;20032;-55
2021/12/27 07:08:09;;;;;;;4.85;3.63;;;;;;;;;;5052254;28;20021;-53
2021/12/27 07:10:35;;;;;;;3.75;2.72;;;;;;;;;;5053036;28;20377;-55
2021/12/27 07:13:03;;;;;;;4.82;3.63;;;;;;;;;;5052711;28;20104;-55
2021/12/27 07:15:29;;;;;;;3.95;2.83;;;;;;;;;;5052756;28;20036;-56
2021/12/27 07:17:55;;;;;;;5.75;4.13;;;;;;;;;;5051871;28;20060;-52
2021/12/27 07:20:21;;;;;;;3.75;3.30;;;;;;;;;;5052324;28;20082;-53
2021/12/27 07:22:47;;;;;;;5.03;3.92;;;;;;;;;;5051511;28;20041;-56
2021/12/27 07:25:13;;;;;;;6.57;3.65;;;;;;;;;;5050996;28;20037;-56
2021/12/27 07:27:39;;;;;;;5.70;3.58;;;;;;;;;;5050619;28;20017;-55
2021/12/27 07:30:07;;;;;;;3.85;3.42;;;;;;;;;;5049776;28;20040;-54
2021/12/27 07:32:33;;;;;;;4.70;3.80;;;;;;;;;;5050833;28;20125;-52
2021/12/27 07:34:59;;;;;;;6.30;4.70;;;;;;;;;;5050251;28;20029;-52
2021/12/27 07:37:25;;;;;;;6.15;4.45;;;;;;;;;;5049254;28;20087;-56
2021/12/27 07:39:51;;;;;;;6.53;5.03;;;;;;;;;;5050867;28;20081;-55
2021/12/27 07:42:18;;;;;;;6.35;4.53;;;;;;;;;;5052376;28;20025;-54
2021/12/27 07:44:44;;;;;;;5.88;4.57;;;;;;;;;;5052048;28;20119;-55
2021/12/27 07:47:10;;;;;;;4.95;4.03;;;;;;;;;;5052329;28;20057;-53
2021/12/27 07:49:37;;;;;;;5.47;4.13;;;;;;;;;;5051391;28;20486;-54
2021/12/27 07:52:03;;;;;;;6.55;3.95;;;;;;;;;;5052185;28;20025;-55
2021/12/27 07:54:29;;;;;;;7.88;3.85;;;;;;;;;;5051612;28;20493;-56
2021/12/27 07:56:55;;;;;;;4.55;3.80;;;;;;;;;;5052017;28;20036;-55
2021/12/27 07:59:21;;;;;;;5.18;4.28;;;;;;;;;;5051031;28;20025;-54
2021/12/27 08:01:47;;;;;;;6.50;4.88;;;;;;;;;;5046272;28;20018;-54
2021/12/27 08:04:13;;;;;;;5.60;4.00;;;;;;;;;;5031850;28;20075;-56
2021/12/27 08:06:39;;;;;;;4.80;4.07;;;;;;;;;;5032324;28;20026;-55
2021/12/27 08:09:06;;;;;;;6.90;5.18;;;;;;;;;;5030852;28;20087;-55
2021/12/27 08:11:32;;;;;;;5.75;4.82;;;;;;;;;;5049578;28;20160;-54
2021/12/27 08:13:58;;;;;;;4.55;4.03;;;;;;;;;;5051957;28;20072;-55
2021/12/27 08:16:24;;;;;;;7.32;5.00;;;;;;;;;;5051501;28;20438;-52
2021/12/27 08:18:54;;;;;;;5.45;4.85;;;;;;;;;;5050869;28;20040;-53
2021/12/27 08:21:21;;;;;;;6.18;4.45;;;;;;;;;;5051935;28;20417;-56
2021/12/27 08:23:47;;;;;;;6.53;5.18;;;;;;;;;;5051357;28;20486;-51
2021/12/27 08:26:13;;;;;;;5.07;4.00;;;;;;;;;;5051116;28;20061;-54
2021/12/27 08:28:39;;;;;;;5.72;4.03;;;;;;;;;;5051017;28;20029;-51
2021/12/27 08:31:05;;;;;;;5.07;3.80;;;;;;;;;;5051745;28;20055;-56
2021/12/27 08:33:31;;;;;;;4.78;3.92;;;;;;;;;;5051620;28;20029;-56
2021/12/27 08:35:57;;;;;;;4.95;4.45;;;;;;;;;;5050099;28;20033;-56
2021/12/27 08:38:23;;;;;;;5.97;4.53;;;;;;;;;;5049034;28;20152;-56
2021/12/27 08:40:49;;;;;;;7.70;4.90;;;;;;;;;;5051559;28;20032;-55
2021/12/27 08:43:15;;;;;;;9.43;5.57;;;;;;;;;;5051477;28;20029;-53
2021/12/27 08:45:41;;;;;;;5.03;4.13;;;;;;;;;;5051455;28;20108;-54
2021/12/27 08:48:07;;;;;;;5.80;4.55;;;;;;;;;;5050850;28;20275;-56
2021/12/27 08:50:33;;;;;;;8.30;5.05;;;;;;;;;;5051741;28;20419;-54
2021/12/27 08:52:59;;;;;;;9.63;6.25;;;;;;;;;;5044914;28;20033;-54
2021/12/27 08:55:25;;;;;;;8.40;5.50;;;;;;;;;;5042623;28;20083;-53
2021/12/27 08:57:51;;;;;;;5.22;4.70;;;;;;;;;;5050111;28;20478;-56
2021/12/27 09:00:17;;;;;;;6.72;4.93;;;;;;;;;;5049150;28;20407;-56
2021/12/27 09:02:46;;;;;;;6.03;4.40;;;;;;;;;;5037233;28;20057;-54
2021/12/27 09:05:13;;;;;;;6.07;5.53;;;;;;;;;;5031905;28;20036;-53
2021/12/27 09:07:39;;;;;;;6.72;5.07;;;;;;;;;;5031587;28;20026;-54
2021/12/27 09:10:05;;;;;;;5.93;4.70;;;;;;;;;;5031367;28;20061;-56
2021/12/27 09:12:32;;;;;;;9.88;4.55;;;;;;;;;;5031544;28;20026;-56
2021/12/27 09:14:58;;;;;;;7.75;5.20;;;;;;;;;;5031265;28;20096;-55
2021/12/27 09:17:24;;;;;;;6.20;5.60;;;;;;;;;;5037490;28;20064;-56
2021/12/27 09:19:50;;;;;;;5.90;4.63;;;;;;;;;;5049002;28;20029;-53
2021/12/27 09:22:17;;;;;;;6.43;5.68;;;;;;;;;;5047688;28;20482;-54
2021/12/27 09:24:43;;;;;;;6.88;4.97;;;;;;;;;;5048640;28;20478;-53
2021/12/27 09:27:09;;;;;;;7.82;5.32;;;;;;;;;;5053771;28;20129;-52
2021/12/27 09:29:35;;;;;;;7.22;5.55;;;;;;;;;;5053643;28;20108;-52
2021/12/27 09:32:01;;;;;;;7.13;6.10;;;;;;;;;;5052173;28;20458;-57
2021/12/27 09:34:27;;;;;;;7.75;5.85;;;;;;;;;;5052227;28;20039;-51
2021/12/27 09:36:53;;;;;;;12.38;6.70;;;;;;;;;;5052142;28;20025;-56
2021/12/27 09:39:19;;;;;;;14.65;7.68;;;;;;;;;;5052398;28;20032;-56
2021/12/27 09:41:45;;;;;;;8.73;6.82;;;;;;;;;;5053034;28;20028;-52
2021/12/27 09:44:11;;;;;;;6.90;5.10;;;;;;;;;;5043300;28;20031;-52
2021/12/27 09:46:38;;;;;;;10.02;6.03;;;;;;;;;;5045379;28;20041;-53
2021/12/27 09:49:09;;;;;;;6.25;5.10;;;;;;;;;;5053566;28;20053;-56
2021/12/27 09:51:37;;;;;;;8.50;5.97;;;;;;;;;;5054154;28;20060;-56
2021/12/27 09:54:03;;;;;;;5.85;4.95;;;;;;;;;;5054351;28;20068;-56
2021/12/27 09:56:29;;;;;;;6.43;5.18;;;;;;;;;;5054270;28;20033;-53
2021/12/27 09:58:56;;;;;;;6.72;5.57;;;;;;;;;;5053345;28;20466;-50
2021/12/27 10:01:22;;;;;;;8.23;5.90;;;;;;;;;;5047908;28;20025;-54
2021/12/27 10:03:52;;;;;;;7.78;6.07;;;;;;;;;;5034172;28;20109;-56
2021/12/27 10:06:19;;;;;;;7.05;6.40;;;;;;;;;;5034101;28;20025;-56
2021/12/27 10:08:50;;;;;;;8.85;6.45;;;;;;;;;;5033520;28;20374;-52
2021/12/27 10:11:24;;;;;;;7.53;5.60;;;;;;;;;;5033862;28;20347;-55
2021/12/27 10:13:59;;;;;;;6.47;5.03;;;;;;;;;;5034158;28;20021;-55
2021/12/27 10:16:25;;;;;;;7.50;5.50;;;;;;;;;;5033984;28;20026;-56
2021/12/27 10:18:55;;;;;;;5.60;5.00;;;;;;;;;;5033353;28;20076;-56
2021/12/27 10:21:21;;;;;;;6.70;6.03;;;;;;;;;;5034096;28;20030;-55
2021/12/27 10:23:47;;;;;;;7.88;6.15;;;;;;;;;;5033335;28;20033;-56
2021/12/27 10:26:19;;;;;;;7.57;6.75;;;;;;;;;;5033802;28;20106;-53
2021/12/27 10:28:45;;;;;;;5.28;4.53;;;;;;;;;;5032944;28;20416;-56
2021/12/27 10:31:11;;;;;;;5.90;5.30;;;;;;;;;;5032928;28;20049;-55
2021/12/27 10:33:37;;;;;;;6.18;5.18;;;;;;;;;;5044401;28;20439;-53
2021/12/27 10:36:03;;;;;;;6.22;5.13;;;;;;;;;;5053069;28;20359;-54
2021/12/27 10:38:31;;;;;;;6.03;4.78;;;;;;;;;;5052741;28;20029;-54
2021/12/27 10:41:04;;;;;;;6.72;4.32;;;;;;;;;;5053334;28;20017;-56
2021/12/27 10:43:44;;;;;;;5.78;4.32;;;;;;;;;;5053061;28;20032;-57
2021/12/27 10:46:11;;;;;;;;;;;;;;;;;;5053639;28;20139;-53
2021/12/27 10:48:49;;;;;;;7.25;5.13;;;;;;;;;;5051748;28;20106;-56
2021/12/27 10:51:15;;;;;;;7.22;4.28;;;;;;;;;;5053074;28;20048;-54
2021/12/27 10:53:44;;;;;;;7.15;5.18;;;;;;;;;;5053045;28;20028;-55
2021/12/27 10:56:10;;;;;;;7.40;4.68;;;;;;;;;;5052896;28;20017;-55
2021/12/27 10:58:38;;;;;;;5.40;3.75;;;;;;;;;;5052349;28;20140;-56
2021/12/27 11:01:04;;;;;;;6.75;4.50;;;;;;;;;;5052418;28;20107;-56
2021/12/27 11:03:30;;;;;;;5.32;4.53;;;;;;;;;;5041936;28;20068;-51
2021/12/27 11:05:56;;;;;;;6.65;4.97;;;;;;;;;;5047593;28;20056;-54
2021/12/27 11:08:22;;;;;;;5.43;4.63;;;;;;;;;;5051348;28;20025;-55
2021/12/27 11:10:48;;;;;;;6.03;4.47;;;;;;;;;;5048578;28;20472;-53
2021/12/27 11:13:14;;;;;;;5.18;4.65;;;;;;;;;;5047955;28;20037;-53
2021/12/27 11:15:42;;;;;;;6.93;4.65;;;;;;;;;;5052175;28;20079;-56
2021/12/27 11:18:08;;;;;;;5.18;4.00;;;;;;;;;;5051555;28;20032;-55
2021/12/27 11:20:35;;;;;;;6.82;3.60;;;;;;;;;;5052344;28;20462;-56
2021/12/27 11:23:02;;;;;;;5.20;4.32;;;;;;;;;;5052410;28;20466;-55
2021/12/27 11:25:30;;;;;;;7.03;4.68;;;;;;;;;;5052394;28;20036;-54
2021/12/27 11:27:56;;;;;;;7.07;4.32;;;;;;;;;;5051605;28;20479;-54
2021/12/27 11:30:24;;;;;;;7.22;5.40;;;;;;;;;;5051602;28;20025;-55
2021/12/27 11:33:06;;;;;;;8.35;5.10;;;;;;;;;;5052347;28;20028;-55
2021/12/27 11:35:33;;;;;;;6.05;4.68;;;;;;;;;;5051547;28;20439;-55
2021/12/27 11:38:01;;;;;;;4.70;4.00;;;;;;;;;;5051214;28;20090;-54
2021/12/27 11:40:38;;;;;;;7.25;4.47;;;;;;;;;;5052025;28;20033;-54
2021/12/27 11:43:05;;;;;;;5.78;4.43;;;;;;;;;;5050969;28;20052;-52
2021/12/27 11:45:38;;;;;;;6.03;4.47;;;;;;;;;;5052140;28;20033;-53
2021/12/27 11:48:11;;;;;;;4.82;4.30;;;;;;;;;;5051122;28;20040;-56
2021/12/27 11:51:12;;;;;;;7.28;5.22;;;;;;;;;;5051754;28;20036;-55
2021/12/27 11:53:43;;;;;;;6.13;4.95;;;;;;;;;;5048872;28;20112;-56
2021/12/27 11:56:11;;;;;;;5.13;4.15;;;;;;;;;;5035157;28;20124;-54
2021/12/27 11:58:39;;;;;;;5.55;4.68;;;;;;;;;;5031402;28;20034;-54
2021/12/27 12:01:07;;;;;;;5.05;4.22;;;;;;;;;;5035736;28;20029;-53
2021/12/27 12:03:40;;;;;;;6.25;4.45;;;;;;;;;;5051363;28;20033;-56
2021/12/27 12:06:08;;;;;;;9.32;5.43;;;;;;;;;;5051916;28;20033;-56
2021/12/27 12:08:37;;;;;;;6.65;4.30;;;;;;;;;;5049654;28;20029;-52
2021/12/27 12:11:05;;;;;;;5.78;4.68;;;;;;;;;;5051023;28;20381;-55
2021/12/27 12:13:37;;;;;;;6.05;4.35;;;;;;;;;;5040638;28;20129;-53
2021/12/27 12:16:03;;;;;;;6.97;4.72;;;;;;;;;;5051245;28;20024;-56
2021/12/27 12:18:30;;;;;;;5.13;4.30;;;;;;;;;;5049640;28;20104;-52
2021/12/27 12:20:56;;;;;;;9.02;4.82;;;;;;;;;;5051810;28;20040;-52
2021/12/27 12:23:22;;;;;;;5.60;4.32;;;;;;;;;;5050939;28;20088;-54
2021/12/27 12:25:56;;;;;;;5.35;3.97;;;;;;;;;;5051253;28;20025;-54
2021/12/27 12:28:22;;;;;;;4.70;3.72;;;;;;;;;;5050409;28;20043;-56
2021/12/27 12:30:49;;;;;;;6.25;4.05;;;;;;;;;;5051067;28;20037;-52
2021/12/27 12:33:16;;;;;;;5.45;4.43;;;;;;;;;;5051191;28;20048;-55
2021/12/27 12:35:59;;;;;;;5.63;3.90;;;;;;;;;;5037833;28;20111;-52
2021/12/27 12:38:27;;;;;;;5.03;3.75;;;;;;;;;;5050146;28;20082;-56
2021/12/27 12:41:10;;;;;;;6.70;4.47;;;;;;;;;;5051288;28;20032;-53
2021/12/27 12:43:41;;;;;;;4.43;3.42;;;;;;;;;;5051061;28;20041;-57
2021/12/27 12:46:10;;;;;;;5.63;3.67;;;;;;;;;;5051078;28;20033;-57
2021/12/27 12:48:36;;;;;;;5.95;4.05;;;;;;;;;;5050198;28;20021;-56
2021/12/27 12:51:02;;;;;;;5.60;4.43;;;;;;;;;;5050601;28;20474;-57
2021/12/27 12:53:30;;;;;;;7.20;4.85;;;;;;;;;;5051583;28;20351;-56
2021/12/27 12:55:59;;;;;;;5.05;3.80;;;;;;;;;;5053432;28;20116;-54
2021/12/27 12:58:36;;;;;;;7.80;4.55;;;;;;;;;;5054240;28;20036;-53
2021/12/27 13:01:03;;;;;;;5.18;4.18;;;;;;;;;;5054493;28;20437;-54
2021/12/27 13:03:29;;;;;;;6.70;4.25;;;;;;;;;;5051147;28;20033;-54
2021/12/27 13:05:59;;;;;;;5.78;4.47;;;;;;;;;;5055122;28;20040;-53
2021/12/27 13:08:25;;;;;;;6.13;4.22;;;;;;;;;;5044398;28;20033;-57
2021/12/27 13:10:55;;;;;;;4.80;3.92;;;;;;;;;;5054709;28;20504;-54
2021/12/27 13:13:21;;;;;;;6.05;4.00;;;;;;;;;;5054351;28;20036;-56
2021/12/27 13:15:50;;;;;;;3.60;3.03;;;;;;;;;;5054846;28;20378;-55
2021/12/27 13:18:17;;;;;;;5.88;3.42;;;;;;;;;;5053390;28;20053;-53
2021/12/27 13:20:48;;;;;;;4.28;3.22;;;;;;;;;;5047639;28;20033;-53
2021/12/27 13:23:17;;;;;;;4.45;3.45;;;;;;;;;;5034889;28;20044;-55
2021/12/27 13:25:43;;;;;;;4.03;3.10;;;;;;;;;;5052690;28;20036;-56
2021/12/27 13:28:19;;;;;;;3.70;3.08;;;;;;;;;;5051085;28;20036;-54
2021/12/27 13:30:45;;;;;;;4.78;3.40;;;;;;;;;;5054431;28;20033;-56
2021/12/27 13:33:11;;;;;;;4.55;3.72;;;;;;;;;;5054170;28;20033;-53
2021/12/27 13:35:37;;;;;;;4.22;3.05;;;;;;;;;;5050854;28;20041;-56
2021/12/27 13:38:03;;;;;;;6.43;3.80;;;;;;;;;;5053617;28;20025;-53
2021/12/27 13:40:29;;;;;;;5.68;2.92;;;;;;;;;;5053755;28;20607;-54
2021/12/27 13:43:02;;;;;;;6.70;2.30;;;;;;;;;;5053456;28;20033;-54
2021/12/27 13:45:39;;;;;;;4.38;2.80;;;;;;;;;;5053533;28;20033;-54
2021/12/27 13:48:05;;;;;;;4.97;3.03;;;;;;;;;;5053066;28;20036;-54
2021/12/27 13:50:32;;;;;;;7.05;3.35;;;;;;;;;;5053530;28;20052;-56
2021/12/27 13:52:59;;;;;;;4.88;2.88;;;;;;;;;;5052101;28;20108;-53
2021/12/27 13:55:29;;;;;;;6.30;3.50;;;;;;;;;;5045058;28;20055;-52
2021/12/27 13:57:55;;;;;;;5.22;2.90;;;;;;;;;;5052380;28;20056;-54
2021/12/27 14:00:28;;;;;;;5.28;2.90;;;;;;;;;;5053114;28;20033;-55
2021/12/27 14:02:54;;;;;;;4.88;3.13;;;;;;;;;;5053626;28;20029;-57
2021/12/27 14:05:24;;;;;;;4.05;2.25;;;;;;;;;;5053542;28;20045;-54
2021/12/27 14:07:50;;;;;;;3.25;2.53;;;;;;;;;;5051210;28;20119;-54
2021/12/27 14:10:27;;;;;;;4.45;2.45;;;;;;;;;;5053516;28;20120;-55
2021/12/27 14:12:58;;;;;;;3.30;2.50;;;;;;;;;;5051891;28;20047;-54
2021/12/27 14:15:27;;;;;;;3.80;2.60;;;;;;;;;;5050124;28;20063;-57
2021/12/27 14:17:53;;;;;;;6.97;3.55;;;;;;;;;;5049076;28;20079;-55
2021/12/27 14:20:19;;;;;;;3.50;2.28;;;;;;;;;;5053379;28;20032;-56
2021/12/27 14:22:54;;;;;;;3.50;2.20;;;;;;;;;;5053464;28;20060;-57
2021/12/27 14:25:21;;;;;;;3.97;2.70;;;;;;;;;;5043704;28;20040;-57
2021/12/27 14:27:47;;;;;;;3.38;2.30;;;;;;;;;;5051554;28;20109;-56
2021/12/27 14:30:29;;;;;;;5.88;3.75;;;;;;;;;;5051924;28;20477;-54
2021/12/27 14:32:59;;;;;;;4.53;2.85;;;;;;;;;;5047247;28;20037;-55
2021/12/27 14:35:25;;;;;;;3.35;2.45;;;;;;;;;;5045678;28;20041;-55
2021/12/27 14:37:52;;;;;;;4.45;2.20;;;;;;;;;;5043507;28;20041;-56
2021/12/27 14:40:21;;;;;;;4.05;2.63;;;;;;;;;;5051788;28;20370;-51
2021/12/27 14:42:48;;;;;;;7.13;3.38;;;;;;;;;;5052906;28;20032;-51
2021/12/27 14:45:13;;;;;;;4.57;3.03;;;;;;;;;;5053099;28;20373;-55
2021/12/27 14:47:39;;;;;;;6.40;3.72;;;;;;;;;;5053222;28;20029;-56